Time,TemperatureF,DewpointF,PressureIn,WindDirection,WindDirectionDegrees,WindSpeedMPH,WindSpeedGustMPH,Humidity,HourlyPrecipIn,Conditions,Clouds,dailyrainin,SolarRadiationWatts/m^2,SoftwareType,DateUTC
2013-11-22 00:11:00,18.0,11.0,-100.00,NE,55,5.0,7.0,72,0.00,,,0.00,0.000000,,2013-11-22 08:11:00,
2013-11-22 00:21:00,18.0,11.0,-100.00,NE,55,5.0,7.0,72,0.00,,,0.00,0.000000,,2013-11-22 08:21:00,
2013-11-22 01:11:00,19.0,12.0,-100.00,NE,47,4.0,6.0,75,0.00,,,0.00,0.000000,,2013-11-22 09:11:00,
2013-11-22 01:21:00,19.0,12.0,-100.00,NE,47,4.0,6.0,75,0.00,,,0.00,0.000000,,2013-11-22 09:21:00,
2013-11-22 01:53:00,20.0,14.0,-100.00,NNE,24,3.0,5.0,77,0.00,,,0.00,0.000000,,2013-11-22 09:53:00,
2013-11-22 02:03:00,20.0,14.0,-100.00,NNE,24,3.0,5.0,77,0.00,,,0.00,0.000000,,2013-11-22 10:03:00,
2013-11-22 02:13:00,20.0,14.0,-100.00,NNE,24,3.0,5.0,77,0.00,,,0.00,0.000000,,2013-11-22 10:13:00,
2013-11-22 02:23:00,20.0,14.0,-100.00,NNE,24,3.0,5.0,77,0.00,,,0.00,0.000000,,2013-11-22 10:23:00,
2013-11-22 02:53:00,16.0,12.0,-100.00,West,269,4.0,5.0,83,0.00,,,0.00,0.000000,,2013-11-22 10:53:00,
2013-11-22 03:02:00,16.0,12.0,-100.00,West,269,4.0,5.0,83,0.00,,,0.00,0.000000,,2013-11-22 11:02:00,
2013-11-22 03:12:00,16.0,12.0,-100.00,West,269,4.0,5.0,83,0.00,,,0.00,0.000000,,2013-11-22 11:12:00,
2013-11-22 03:22:00,16.0,12.0,-100.00,West,269,4.0,5.0,83,0.00,,,0.00,0.000000,,2013-11-22 11:22:00,
2013-11-22 03:52:00,17.0,11.0,-100.00,West,264,3.0,5.0,78,0.00,,,0.00,0.000000,,2013-11-22 11:52:00,
2013-11-22 04:02:00,17.0,11.0,-100.00,West,264,3.0,5.0,78,0.00,,,0.00,0.000000,,2013-11-22 12:02:00,
2013-11-22 04:12:00,17.0,11.0,-100.00,West,264,3.0,5.0,78,0.00,,,0.00,0.000000,,2013-11-22 12:12:00,
2013-11-22 04:21:00,17.0,11.0,-100.00,West,264,3.0,5.0,78,0.00,,,0.00,0.000000,,2013-11-22 12:21:00,
2013-11-22 04:52:00,16.0,12.0,-100.00,NE,49,1.0,5.0,83,0.00,,,0.00,0.000000,,2013-11-22 12:52:00,
2013-11-22 05:01:00,16.0,12.0,-100.00,NE,49,1.0,5.0,83,0.00,,,0.00,0.000000,,2013-11-22 13:01:00,
2013-11-22 05:11:00,16.0,12.0,-100.00,NE,49,1.0,5.0,83,0.00,,,0.00,0.000000,,2013-11-22 13:11:00,
2013-11-22 05:22:00,16.0,12.0,-100.00,NE,49,1.0,5.0,83,0.00,,,0.00,0.000000,,2013-11-22 13:22:00,
2013-11-22 05:52:00,15.0,11.0,-100.00,NNE,14,1.0,4.0,85,0.00,,,0.00,0.000000,,2013-11-22 13:52:00,
2013-11-22 06:02:00,15.0,11.0,-100.00,NNE,14,1.0,4.0,85,0.00,,,0.00,0.000000,,2013-11-22 14:02:00,
2013-11-22 06:11:00,15.0,11.0,-100.00,NNE,14,1.0,4.0,85,0.00,,,0.00,0.000000,,2013-11-22 14:11:00,
2013-11-22 06:22:00,15.0,11.0,-100.00,NNE,14,1.0,4.0,85,0.00,,,0.00,0.000000,,2013-11-22 14:22:00,
2013-11-22 06:52:00,14.0,11.0,-100.00,West,262,2.0,3.0,87,0.00,,,0.00,0.000000,,2013-11-22 14:52:00,
2013-11-22 07:02:00,14.0,11.0,-100.00,West,262,2.0,3.0,87,0.00,,,0.00,0.000000,,2013-11-22 15:02:00,
2013-11-22 07:11:00,14.0,11.0,-100.00,West,262,2.0,3.0,87,0.00,,,0.00,0.000000,,2013-11-22 15:11:00,
2013-11-22 07:22:00,14.0,11.0,-100.00,West,262,2.0,3.0,87,0.00,,,0.00,0.000000,,2013-11-22 15:22:00,
2013-11-22 08:13:00,14.0,11.0,-100.00,SW,228,0.0,4.0,87,0.00,,,0.00,7.000000,,2013-11-22 16:13:00,
2013-11-22 08:23:00,14.0,11.0,-100.00,SW,228,0.0,4.0,87,0.00,,,0.00,7.000000,,2013-11-22 16:23:00,
2013-11-22 09:12:00,21.0,16.0,-100.00,SE,126,0.0,2.0,80,0.00,,,0.00,112.000000,,2013-11-22 17:12:00,
2013-11-22 09:22:00,21.0,16.0,-100.00,SE,126,0.0,2.0,80,0.00,,,0.00,112.000000,,2013-11-22 17:22:00,
2013-11-22 09:52:00,26.0,18.0,-100.00,ESE,121,2.0,4.0,71,0.00,,,0.00,270.000000,,2013-11-22 17:52:00,
2013-11-22 10:02:00,26.0,18.0,-100.00,ESE,121,2.0,4.0,71,0.00,,,0.00,270.000000,,2013-11-22 18:02:00,
2013-11-22 10:12:00,26.0,18.0,-100.00,ESE,121,2.0,4.0,71,0.00,,,0.00,270.000000,,2013-11-22 18:12:00,
2013-11-22 10:21:00,26.0,18.0,-100.00,ESE,121,2.0,4.0,71,0.00,,,0.00,270.000000,,2013-11-22 18:21:00,
2013-11-22 10:52:00,30.0,17.0,-100.00,South,173,3.0,6.0,59,0.00,,,-99.99,356.000000,,2013-11-22 18:52:00,
2013-11-22 11:01:00,30.0,17.0,-100.00,South,173,3.0,6.0,59,0.00,,,-99.99,356.000000,,2013-11-22 19:01:00,
2013-11-22 11:11:00,30.0,17.0,-100.00,South,173,3.0,6.0,59,0.00,,,-99.99,356.000000,,2013-11-22 19:11:00,
2013-11-22 11:21:00,30.0,17.0,-100.00,South,173,3.0,6.0,59,0.00,,,-99.99,356.000000,,2013-11-22 19:21:00,
2013-11-22 11:52:00,32.0,16.0,-100.00,WNW,286,5.0,7.0,51,0.00,,,-99.99,410.000000,,2013-11-22 19:52:00,
2013-11-22 12:01:00,32.0,16.0,-100.00,WNW,286,5.0,7.0,51,0.00,,,-99.99,410.000000,,2013-11-22 20:01:00,
2013-11-22 12:11:00,32.0,16.0,-100.00,WNW,286,5.0,7.0,51,0.00,,,-99.99,410.000000,,2013-11-22 20:11:00,
2013-11-22 12:21:00,32.0,16.0,-100.00,WNW,286,5.0,7.0,51,0.00,,,-99.99,410.000000,,2013-11-22 20:21:00,
2013-11-22 12:52:00,34.0,16.0,-100.00,NNW,333,5.0,8.0,48,0.00,,,0.00,338.000000,,2013-11-22 20:52:00,
2013-11-22 13:02:00,34.0,16.0,-100.00,NNW,333,5.0,8.0,48,0.00,,,0.00,338.000000,,2013-11-22 21:02:00,
2013-11-22 13:11:00,34.0,16.0,-100.00,NNW,333,5.0,8.0,48,0.00,,,0.00,338.000000,,2013-11-22 21:11:00,
2013-11-22 13:22:00,34.0,16.0,-100.00,NNW,333,5.0,8.0,48,0.00,,,0.00,338.000000,,2013-11-22 21:22:00,
2013-11-22 13:53:00,37.0,19.0,-100.00,NNW,347,4.0,8.0,47,0.00,,,0.00,335.000000,,2013-11-22 21:53:00,
2013-11-22 14:03:00,37.0,19.0,-100.00,NNW,347,4.0,8.0,47,0.00,,,0.00,335.000000,,2013-11-22 22:03:00,
2013-11-22 14:13:00,37.0,19.0,-100.00,NNW,347,4.0,8.0,47,0.00,,,0.00,335.000000,,2013-11-22 22:13:00,
2013-11-22 14:23:00,37.0,19.0,-100.00,NNW,347,4.0,8.0,47,0.00,,,0.00,335.000000,,2013-11-22 22:23:00,
2013-11-22 14:53:00,38.0,16.0,-100.00,NNW,337,5.0,8.0,41,0.00,,,0.00,246.000000,,2013-11-22 22:53:00,
2013-11-22 15:02:00,38.0,16.0,-100.00,NNW,337,5.0,8.0,41,0.00,,,0.00,246.000000,,2013-11-22 23:02:00,
2013-11-22 15:12:00,38.0,16.0,-100.00,NNW,337,5.0,8.0,41,0.00,,,0.00,246.000000,,2013-11-22 23:12:00,
2013-11-22 15:22:00,38.0,16.0,-100.00,NNW,337,5.0,8.0,41,0.00,,,0.00,246.000000,,2013-11-22 23:22:00,
2013-11-22 15:53:00,35.0,15.0,-100.00,WNW,296,5.0,8.0,43,0.00,,,0.00,97.000000,,2013-11-22 23:53:00,
2013-11-22 16:02:00,35.0,15.0,-100.00,WNW,296,5.0,8.0,43,0.00,,,0.00,97.000000,,2013-11-23 00:02:00,
2013-11-22 16:11:00,35.0,15.0,-100.00,WNW,296,5.0,8.0,43,0.00,,,0.00,97.000000,,2013-11-23 00:11:00,
2013-11-22 16:21:00,35.0,15.0,-100.00,WNW,296,5.0,8.0,43,0.00,,,0.00,97.000000,,2013-11-23 00:21:00,
2013-11-22 17:11:00,30.0,15.0,-100.00,WNW,291,8.0,9.0,54,0.00,,,0.00,16.000000,,2013-11-23 01:11:00,
2013-11-22 17:21:00,30.0,15.0,-100.00,WNW,291,8.0,9.0,54,0.00,,,0.00,16.000000,,2013-11-23 01:21:00,
2013-11-22 17:52:00,29.0,14.0,-100.00,WNW,292,9.0,10.0,53,0.00,,,0.00,0.000000,,2013-11-23 01:52:00,
2013-11-22 18:02:00,29.0,14.0,-100.00,WNW,292,9.0,10.0,53,0.00,,,0.00,0.000000,,2013-11-23 02:02:00,
2013-11-22 18:11:00,29.0,14.0,-100.00,WNW,292,9.0,10.0,53,0.00,,,0.00,0.000000,,2013-11-23 02:11:00,
2013-11-22 18:22:00,29.0,14.0,-100.00,WNW,292,9.0,10.0,53,0.00,,,0.00,0.000000,,2013-11-23 02:22:00,
2013-11-22 18:53:00,28.0,14.0,-100.00,WNW,291,7.0,11.0,54,0.00,,,0.00,0.000000,,2013-11-23 02:53:00,
2013-11-22 19:02:00,28.0,14.0,-100.00,WNW,291,7.0,11.0,54,0.00,,,0.00,0.000000,,2013-11-23 03:02:00,
2013-11-22 19:11:00,28.0,14.0,-100.00,WNW,291,7.0,11.0,54,0.00,,,0.00,0.000000,,2013-11-23 03:11:00,
2013-11-22 19:22:00,28.0,14.0,-100.00,WNW,291,7.0,11.0,54,0.00,,,0.00,0.000000,,2013-11-23 03:22:00,
2013-11-22 19:53:00,25.0,13.0,-100.00,SW,232,0.0,5.0,61,0.00,,,0.00,0.000000,,2013-11-23 03:53:00,
2013-11-22 20:02:00,25.0,13.0,-100.00,SW,232,0.0,5.0,61,0.00,,,0.00,0.000000,,2013-11-23 04:02:00,
2013-11-22 20:13:00,25.0,13.0,-100.00,SW,232,0.0,5.0,61,0.00,,,0.00,0.000000,,2013-11-23 04:13:00,
2013-11-22 20:23:00,25.0,13.0,-100.00,SW,232,0.0,5.0,61,0.00,,,0.00,0.000000,,2013-11-23 04:23:00,
2013-11-22 20:53:00,26.0,14.0,-100.00,WNW,293,4.0,6.0,60,0.00,,,0.00,0.000000,,2013-11-23 04:53:00,
2013-11-22 21:03:00,26.0,14.0,-100.00,WNW,293,4.0,6.0,60,0.00,,,0.00,0.000000,,2013-11-23 05:03:00,
2013-11-22 21:12:00,26.0,14.0,-100.00,WNW,293,4.0,6.0,60,0.00,,,0.00,0.000000,,2013-11-23 05:12:00,
2013-11-22 21:22:00,26.0,14.0,-100.00,WNW,293,4.0,6.0,60,0.00,,,0.00,0.000000,,2013-11-23 05:22:00,
2013-11-22 21:53:00,24.0,14.0,-100.00,NW,324,2.0,7.0,64,0.00,,,0.00,0.000000,,2013-11-23 05:53:00,
2013-11-22 22:02:00,24.0,14.0,-100.00,NW,324,2.0,7.0,64,0.00,,,0.00,0.000000,,2013-11-23 06:02:00,
2013-11-22 22:12:00,24.0,14.0,-100.00,NW,324,2.0,7.0,64,0.00,,,0.00,0.000000,,2013-11-23 06:12:00,
2013-11-22 22:22:00,24.0,14.0,-100.00,NW,324,2.0,7.0,64,0.00,,,0.00,0.000000,,2013-11-23 06:22:00,
2013-11-22 22:52:00,24.0,13.0,-100.00,WNW,302,3.0,4.0,62,0.00,,,0.00,0.000000,,2013-11-23 06:52:00,
2013-11-22 23:01:00,24.0,13.0,-100.00,WNW,302,3.0,4.0,62,0.00,,,0.00,0.000000,,2013-11-23 07:01:00,
2013-11-22 23:11:00,24.0,13.0,-100.00,WNW,302,3.0,4.0,62,0.00,,,0.00,0.000000,,2013-11-23 07:11:00,
2013-11-22 23:21:00,24.0,13.0,-100.00,WNW,302,3.0,4.0,62,0.00,,,0.00,0.000000,,2013-11-23 07:21:00,
2013-11-22 23:52:00,25.0,14.0,-100.00,NNW,342,4.0,7.0,63,0.00,,,0.00,0.000000,,2013-11-23 07:52:00,